EST,Max TemperatureF,Mean TemperatureF,Min TemperatureF,Max Dew PointF,MeanDew PointF,Min DewpointF,Max Humidity, Mean Humidity, Min Humidity, Max Sea Level PressureIn, Mean Sea Level PressureIn, Min Sea Level PressureIn, Max VisibilityMiles, Mean VisibilityMiles, Min VisibilityMiles, Max Wind SpeedMPH, Mean Wind SpeedMPH, Max Gust SpeedMPH,PrecipitationIn, CloudCover, Events, WindDirDegrees
2012-12-1,63,51,39,45,41,36,89,68,48,30.28,30.22,30.16,10,10,8,7,3,,0.00,5,,130
2012-12-2,60,56,53,58,53,45,97,87,60,30.16,30.12,30.07,10,6,1,10,5,18,0.51,8,Rain-Thunderstorm,208
2012-12-3,72,64,55,58,56,50,100,85,59,30.16,30.13,30.06,10,6,1,14,2,17,0.02,6,Rain,177
2012-12-4,66,50,35,61,50,35,100,87,67,30.23,30.10,30.01,10,6,0,20,6,29,0.41,6,Fog-Rain,248
2012-12-5,46,38,25,37,33,23,100,87,54,30.40,30.31,30.22,10,5,0,10,2,,0.00,0,Fog,4
2012-12-6,48,36,23,45,32,21,96,78,56,30.33,30.14,29.99,10,10,4,6,2,,0.04,3,Rain,116
2012-12-7,55,50,46,54,49,45,100,96,88,30.00,29.94,29.85,9,3,0,8,1,,0.52,8,Fog-Rain,89
2012-12-8,55,50,46,53,48,42,100,92,77,30.05,29.91,29.84,10,5,1,12,3,,0.03,7,Rain,318
2012-12-9,61,52,44,57,49,41,94,89,82,30.06,29.88,29.71,10,8,2,9,5,17,0.44,8,Rain-Thunderstorm,119
2012-12-10,55,44,33,55,39,27,97,85,70,29.97,29.77,29.70,10,9,4,16,8,20,0.03,8,Rain,295
2012-12-11,35,28,21,28,24,18,88,74,59,30.29,30.14,29.98,10,10,8,9,6,,0.00,6,,258
2012-12-12,43,30,17,27,20,13,92,76,45,30.45,30.40,30.30,10,9,5,5,0,,0.00,0,,100
2012-12-13,48,32,16,28,20,13,92,73,36,30.47,30.40,30.31,10,9,6,7,1,,0.00,0,,157
2012-12-14,55,37,19,31,24,16,96,68,29,30.35,30.28,30.19,10,9,4,7,1,,0.00,0,,199
2012-12-15,55,44,34,45,37,28,83,71,54,30.18,29.98,29.81,10,10,4,6,2,,0.06,6,Rain,146
2012-12-16,63,52,41,54,47,39,96,80,60,29.81,29.74,29.68,10,9,2,14,3,22,0.00,4,,214
2012-12-17,48,42,35,46,42,36,100,95,87,29.76,29.67,29.56,7,3,0,12,2,17,0.24,7,Fog-Rain-Thunderstorm,338
2012-12-18,44,37,30,43,36,28,93,86,73,29.91,29.78,29.63,10,7,4,12,6,,0.04,6,Rain,279
2012-12-19,46,38,30,37,34,28,92,77,63,30.10,30.01,29.81,10,8,5,12,4,21,0.00,3,,224
2012-12-20,53,44,33,48,40,25,94,82,62,29.95,29.54,29.27,10,6,1,23,10,45,0.81,7,Rain-Snow,178
2012-12-21,33,30,28,25,23,21,80,76,72,30.12,29.78,29.54,10,7,1,22,18,34,0.01,8,Snow,267
2012-12-22,35,29,19,22,20,17,89,71,52,30.30,30.21,30.12,10,10,10,10,7,20,0.00,4,,259
2012-12-23,48,34,19,29,23,16,92,75,46,30.09,30.00,29.96,10,10,8,7,2,,0.00,0,,130
2012-12-24,42,34,25,40,33,21,96,88,79,30.05,29.87,29.78,10,6,1,14,3,20,0.02,7,Rain,316
2012-12-25,36,34,32,30,27,25,85,76,70,30.22,30.15,30.04,10,8,5,15,6,25,0.00,8,,39
2012-12-26,35,32,30,31,28,22,93,85,70,30.04,29.70,29.58,10,4,0,22,14,34,0.74,8,Fog-Rain-Snow,25
2012-12-27,30,24,19,23,21,16,92,78,72,30.21,30.14,29.97,10,9,5,14,7,,0.00,6,,301
2012-12-28,34,26,17,30,25,15,100,85,73,30.21,30.05,29.86,10,7,1,5,1,,0.04,7,Snow,87
2012-12-29,33,30,27,30,27,19,100,87,72,30.25,29.87,29.74,10,3,1,14,5,22,0.15,8,Snow,308
2012-12-30,32,24,15,19,17,12,88,73,56,30.49,30.42,30.27,10,9,5,12,8,17,0.00,3,,246
2012-12-31,37,26,15,31,27,13,91,81,64,30.35,30.18,30.09,10,8,2,9,4,18,0.01,6,Snow,221